createdAt,value
2023-01-27T00:00:43.231Z,-0.29
2023-01-27T00:03:12.839Z,-0.45
2023-01-27T00:05:40.111Z,-0.49
2023-01-27T00:08:06.737Z,-0.57
2023-01-27T00:10:33.347Z,-0.48
2023-01-27T00:12:59.914Z,-0.36
2023-01-27T00:15:27.440Z,-0.36
2023-01-27T00:17:54.091Z,-0.28
2023-01-27T00:20:20.735Z,-0.50
2023-01-27T00:22:47.318Z,-0.51
2023-01-27T00:25:14.237Z,-0.68
2023-01-27T00:27:40.863Z,-0.65
2023-01-27T00:30:09.598Z,-0.74
2023-01-27T00:32:36.307Z,-0.67
2023-01-27T00:35:02.952Z,-0.71
2023-01-27T00:37:29.577Z,-0.65
2023-01-27T00:39:56.228Z,-0.62
2023-01-27T00:42:22.931Z,-0.66
2023-01-27T00:44:49.579Z,-0.59
2023-01-27T00:47:16.260Z,-0.59
2023-01-27T00:49:42.869Z,-0.55
2023-01-27T00:52:09.461Z,-0.61
2023-01-27T00:54:36.081Z,-0.50
2023-01-27T00:57:02.683Z,-0.45
2023-01-27T00:59:29.279Z,-0.41
2023-01-27T01:01:55.935Z,-0.46
2023-01-27T01:04:22.576Z,-0.63
2023-01-27T01:06:49.172Z,-0.72
2023-01-27T01:09:15.852Z,-0.73
2023-01-27T01:11:42.435Z,-0.72
2023-01-27T01:14:09.034Z,-0.59
2023-01-27T01:16:35.694Z,-0.55
2023-01-27T01:19:02.372Z,-0.61
2023-01-27T01:21:28.954Z,-0.45
2023-01-27T01:23:55.667Z,-0.51
2023-01-27T01:26:22.257Z,-0.46
2023-01-27T01:28:48.851Z,-0.55
2023-01-27T01:31:18.739Z,-0.77
2023-01-27T01:33:46.894Z,-0.80
2023-01-27T01:36:16.354Z,-0.70
2023-01-27T01:38:43.237Z,-0.68
2023-01-27T01:41:14.589Z,-0.62
2023-01-27T01:43:41.401Z,-0.79
2023-01-27T01:46:10.269Z,-0.56
2023-01-27T01:48:36.819Z,-0.55
2023-01-27T01:51:16.697Z,-0.62
2023-01-27T01:54:05.283Z,-0.66
2023-01-27T01:56:42.349Z,-0.67
2023-01-27T01:59:29.053Z,-0.63
2023-01-27T02:01:58.705Z,-0.58
2023-01-27T02:04:30.436Z,-0.61
2023-01-27T02:07:12.101Z,-0.59
2023-01-27T02:09:39.441Z,-0.52
2023-01-27T02:12:06.280Z,-0.63
2023-01-27T02:14:33.060Z,-0.68
2023-01-27T02:16:59.704Z,-0.79
2023-01-27T02:19:56.666Z,-0.65
2023-01-27T02:22:38.667Z,-0.72
2023-01-27T02:25:21.138Z,-0.54
2023-01-27T02:27:47.800Z,-0.76
2023-01-27T02:30:14.424Z,-0.79
2023-01-27T02:32:41.029Z,-0.94
2023-01-27T02:35:14.273Z,-1.06
2023-01-27T02:37:41.795Z,-1.07
2023-01-27T02:40:10.036Z,-1.20
2023-01-27T02:42:36.648Z,-1.20
2023-01-27T02:45:03.524Z,-1.16
2023-01-27T02:47:30.306Z,-1.14
2023-01-27T02:49:56.953Z,-1.03
2023-01-27T02:52:23.636Z,-1.02
2023-01-27T02:54:50.233Z,-1.11
2023-01-27T02:57:16.814Z,-1.24
2023-01-27T02:59:43.417Z,-1.01
2023-01-27T03:02:10.037Z,-1.02
2023-01-27T03:04:36.735Z,-1.02
2023-01-27T03:07:03.356Z,-0.87
2023-01-27T03:09:30.113Z,-0.94
2023-01-27T03:11:56.837Z,-0.95
2023-01-27T03:14:23.474Z,-0.95
2023-01-27T03:16:50.064Z,-0.91
2023-01-27T03:19:16.754Z,-0.89
2023-01-27T03:21:43.343Z,-0.87
2023-01-27T03:24:10.005Z,-1.15
2023-01-27T03:26:36.712Z,-1.23
2023-01-27T03:29:03.350Z,-1.36
2023-01-27T03:31:30.026Z,-1.48
2023-01-27T03:33:56.682Z,-1.58
2023-01-27T03:36:23.303Z,-1.44
2023-01-27T03:38:52.298Z,-1.43
2023-01-27T03:41:19.018Z,-1.38
2023-01-27T03:43:45.627Z,-1.42
2023-01-27T03:46:12.241Z,-1.40
2023-01-27T03:48:38.861Z,-1.34
2023-01-27T03:51:08.032Z,-1.35
2023-01-27T03:53:38.028Z,-1.39
2023-01-27T03:56:05.493Z,-1.31
2023-01-27T03:58:34.704Z,-1.23
2023-01-27T04:01:21.732Z,-1.41
2023-01-27T04:03:49.591Z,-1.70
2023-01-27T04:06:19.986Z,-1.70
2023-01-27T04:08:46.599Z,-1.70
2023-01-27T04:11:13.186Z,-1.53
2023-01-27T04:13:39.808Z,-1.47
2023-01-27T04:16:06.667Z,-1.41
2023-01-27T04:18:33.333Z,-1.59
2023-01-27T04:20:59.918Z,-1.68
2023-01-27T04:23:26.529Z,-1.57
2023-01-27T04:25:53.158Z,-1.57
2023-01-27T04:28:37.330Z,-1.55
2023-01-27T04:31:06.419Z,-1.59
2023-01-27T04:33:33.064Z,-1.61
2023-01-27T04:35:59.658Z,-1.65
2023-01-27T04:38:26.542Z,-1.59
2023-01-27T04:40:53.159Z,-1.72
2023-01-27T04:43:19.751Z,-1.56
2023-01-27T04:45:46.413Z,-1.48
2023-01-27T04:48:13.027Z,-1.44
2023-01-27T04:50:39.625Z,-1.40
2023-01-27T04:53:06.401Z,-1.38
2023-01-27T04:55:32.999Z,-1.14
2023-01-27T04:57:59.590Z,-1.34
2023-01-27T05:00:26.583Z,-1.36
2023-01-27T05:02:53.202Z,-1.50
2023-01-27T05:05:19.799Z,-1.40
2023-01-27T05:07:46.475Z,-1.40
2023-01-27T05:10:13.111Z,-1.56
2023-01-27T05:12:39.705Z,-1.70
2023-01-27T05:15:07.037Z,-1.56
2023-01-27T05:17:34.724Z,-1.54
2023-01-27T05:20:01.310Z,-1.45
2023-01-27T05:22:27.944Z,-1.56
2023-01-27T05:24:54.696Z,-1.51
2023-01-27T05:27:21.650Z,-1.66
2023-01-27T05:29:48.251Z,-1.76
2023-01-27T05:32:14.936Z,-1.73
2023-01-27T05:34:41.556Z,-1.62
2023-01-27T05:37:08.175Z,-1.57
2023-01-27T05:39:34.849Z,-1.73
2023-01-27T05:42:01.439Z,-1.64
2023-01-27T05:44:28.051Z,-1.62
2023-01-27T05:46:54.640Z,-1.68
2023-01-27T05:49:21.217Z,-1.79
2023-01-27T05:51:47.997Z,-1.73
2023-01-27T05:54:14.771Z,-1.75
2023-01-27T05:56:41.384Z,-1.80
2023-01-27T05:59:08.140Z,-1.69
2023-01-27T06:01:35.397Z,-1.71
2023-01-27T06:04:02.247Z,-1.88
2023-01-27T06:06:30.709Z,-1.75
2023-01-27T06:08:57.689Z,-1.81
2023-01-27T06:11:25.025Z,-1.92
2023-01-27T06:13:52.896Z,-1.94
2023-01-27T06:16:21.262Z,-2.16
2023-01-27T06:18:49.016Z,-2.26
2023-01-27T06:21:16.727Z,-2.14
2023-01-27T06:23:46.400Z,-2.08
2023-01-27T06:26:16.222Z,-2.11
2023-01-27T06:28:43.643Z,-2.07
2023-01-27T06:31:16.554Z,-2.00
2023-01-27T06:33:43.337Z,-1.87
2023-01-27T06:36:13.119Z,-1.85
2023-01-27T06:38:39.856Z,-1.85
2023-01-27T06:41:06.669Z,-1.94
2023-01-27T06:43:33.962Z,-2.04
2023-01-27T06:46:01.081Z,-2.07
2023-01-27T06:48:28.605Z,-1.93
2023-01-27T06:50:56.542Z,-1.95
2023-01-27T06:53:23.972Z,-1.97
2023-01-27T06:55:56.530Z,-1.95
2023-01-27T06:58:23.185Z,-2.05
2023-01-27T07:00:49.785Z,-1.99
2023-01-27T07:05:42.590Z,-1.64
2023-01-27T07:08:09.550Z,-1.79
2023-01-27T07:10:36.157Z,-1.85
2023-01-27T07:13:05.897Z,-1.80
2023-01-27T07:15:33.442Z,-1.82
2023-01-27T07:18:01.426Z,-1.66
2023-01-27T07:20:28.756Z,-1.77
2023-01-27T07:22:59.745Z,-1.80
2023-01-27T07:25:27.413Z,-1.57
2023-01-27T07:27:54.260Z,-1.70
2023-01-27T07:30:20.971Z,-1.57
2023-01-27T07:32:49.754Z,-1.50
2023-01-27T07:35:17.768Z,-1.61
2023-01-27T07:37:44.839Z,-1.27
2023-01-27T07:40:12.328Z,-1.36
2023-01-27T07:42:40.055Z,-1.36
2023-01-27T07:45:07.450Z,-1.77
2023-01-27T07:47:34.053Z,-1.86
2023-01-27T07:50:00.663Z,-1.69
2023-01-27T07:52:27.286Z,-1.76
2023-01-27T07:54:53.980Z,-1.71
2023-01-27T07:57:20.553Z,-1.70
2023-01-27T07:59:47.181Z,-1.58
2023-01-27T08:02:13.775Z,-1.45
2023-01-27T08:04:52.668Z,-1.67
2023-01-27T08:07:20.969Z,-1.62
2023-01-27T08:09:47.607Z,-1.36
2023-01-27T08:12:14.203Z,-1.45
2023-01-27T08:14:40.817Z,-1.38
2023-01-27T08:17:07.549Z,-1.40
2023-01-27T08:19:34.231Z,-1.45
2023-01-27T08:22:00.821Z,-1.49
2023-01-27T08:24:27.474Z,-1.26
2023-01-27T08:26:54.372Z,-1.01
2023-01-27T08:29:21.001Z,-1.15
2023-01-27T08:31:47.761Z,-1.10
2023-01-27T08:34:14.436Z,-1.34
2023-01-27T08:36:41.304Z,-1.06
2023-01-27T08:39:09.320Z,-1.23
2023-01-27T08:41:35.918Z,-1.27
2023-01-27T08:44:02.560Z,-1.22
2023-01-27T08:46:29.196Z,-1.26
2023-01-27T08:48:55.796Z,-1.29
2023-01-27T08:51:22.564Z,-1.35
2023-01-27T08:53:49.183Z,-1.24
2023-01-27T08:56:15.865Z,-1.17
2023-01-27T08:58:42.608Z,-1.20
2023-01-27T09:01:09.875Z,-1.12
2023-01-27T09:03:37.283Z,-0.98
2023-01-27T09:06:08.230Z,-1.18
2023-01-27T09:08:35.224Z,-1.16
2023-01-27T09:11:08.673Z,-1.21
2023-01-27T09:13:35.270Z,-1.13
2023-01-27T09:16:01.989Z,-1.26
2023-01-27T09:18:28.610Z,-0.90
2023-01-27T09:20:55.200Z,-1.17
2023-01-27T09:23:21.804Z,-1.37
2023-01-27T09:25:48.383Z,-1.36
2023-01-27T09:28:15.306Z,-1.05
2023-01-27T09:30:42.286Z,-0.76
2023-01-27T09:33:10.318Z,-1.00
2023-01-27T09:35:42.817Z,-0.79
2023-01-27T09:38:11.999Z,-0.71
2023-01-27T09:41:06.001Z,-0.89
2023-01-27T09:43:44.531Z,-0.87
2023-01-27T09:46:38.841Z,-1.27
2023-01-27T09:49:38.860Z,-1.24
2023-01-27T09:52:45.478Z,-1.05
2023-01-27T09:55:35.012Z,-1.23
2023-01-27T09:58:19.937Z,-1.19
2023-01-27T10:00:59.064Z,-1.06
2023-01-27T10:03:49.910Z,-1.04
2023-01-27T10:06:37.991Z,-0.99
2023-01-27T10:09:30.269Z,-1.14
2023-01-27T10:12:27.777Z,-1.38
2023-01-27T10:15:16.220Z,-1.40
2023-01-27T10:17:51.823Z,-1.01
2023-01-27T10:20:26.511Z,-1.22
2023-01-27T10:22:56.737Z,-1.34
2023-01-27T10:25:35.429Z,-1.53
2023-01-27T10:28:11.481Z,-1.39
2023-01-27T10:30:40.072Z,-1.39
2023-01-27T10:33:12.696Z,-1.29
2023-01-27T10:35:45.535Z,-1.36
2023-01-27T10:39:06.923Z,-1.46
2023-01-27T10:41:47.804Z,-1.27
2023-01-27T10:44:14.355Z,-1.48
2023-01-27T10:46:59.165Z,-1.55
2023-01-27T10:49:38.422Z,-1.41
2023-01-27T10:52:30.437Z,-1.55
2023-01-27T10:55:20.305Z,-1.59
2023-01-27T10:57:55.357Z,-1.61
2023-01-27T11:00:51.734Z,-1.42
2023-01-27T11:03:29.163Z,-1.01
2023-01-27T11:06:04.073Z,-1.13
2023-01-27T11:08:36.338Z,-1.28
2023-01-27T11:11:07.519Z,-1.34
2023-01-27T11:13:35.596Z,-1.47
2023-01-27T11:16:04.847Z,-1.52
2023-01-27T11:18:34.439Z,-1.32
2023-01-27T11:21:05.924Z,-1.26
2023-01-27T11:23:42.468Z,-1.57
2023-01-27T11:26:31.886Z,-1.55
2023-01-27T11:29:28.609Z,-1.63
2023-01-27T11:32:01.110Z,-1.54
2023-01-27T11:34:34.361Z,-1.68
2023-01-27T11:37:19.742Z,-1.55
2023-01-27T11:39:46.717Z,-1.51
2023-01-27T11:42:13.766Z,-1.31
2023-01-27T11:44:42.516Z,-1.22
2023-01-27T11:47:24.052Z,-1.22
2023-01-27T11:49:53.101Z,-1.37
2023-01-27T11:52:22.715Z,-1.49
2023-01-27T11:55:18.034Z,-1.38
2023-01-27T11:57:50.735Z,-1.59
2023-01-27T12:00:44.185Z,-1.64
2023-01-27T12:03:55.537Z,-1.52
2023-01-27T12:06:38.617Z,-1.43
2023-01-27T12:09:05.318Z,-1.49
2023-01-27T12:11:32.267Z,-1.46
2023-01-27T12:14:06.293Z,-1.48
2023-01-27T12:16:49.299Z,-1.33
2023-01-27T12:19:29.790Z,-1.46
2023-01-27T12:22:00.275Z,-1.59
2023-01-27T12:24:31.961Z,-1.51
2023-01-27T12:27:00.041Z,-1.49
2023-01-27T12:29:38.626Z,-1.62
2023-01-27T12:32:15.237Z,-1.45
2023-01-27T12:34:46.040Z,-1.54
2023-01-27T12:37:22.844Z,-1.40
2023-01-27T12:40:00.453Z,-1.55
2023-01-27T12:42:38.843Z,-1.37
2023-01-27T12:45:25.379Z,-1.13
2023-01-27T12:48:15.129Z,-1.39
2023-01-27T12:51:06.394Z,-1.44
2023-01-27T12:53:33.050Z,-1.56
2023-01-27T12:56:18.799Z,-1.41
2023-01-27T12:58:55.396Z,-1.23
2023-01-27T13:01:34.916Z,-1.33
2023-01-27T13:04:22.126Z,-1.34
2023-01-27T13:07:01.521Z,-1.44
2023-01-27T13:09:50.109Z,-1.29
2023-01-27T13:12:20.891Z,-1.32
2023-01-27T13:14:54.510Z,-1.38
2023-01-27T13:17:28.030Z,-1.29
2023-01-27T13:19:59.349Z,-1.36
2023-01-27T13:22:26.883Z,-1.23
2023-01-27T13:25:00.711Z,-1.13
2023-01-27T13:27:33.861Z,-1.18
2023-01-27T13:30:19.982Z,-1.13
2023-01-27T13:32:50.039Z,-1.26
2023-01-27T13:35:16.719Z,-1.44
2023-01-27T13:37:47.971Z,-1.36
2023-01-27T13:40:30.334Z,-1.36
2023-01-27T13:43:09.086Z,-1.41
2023-01-27T13:45:43.725Z,-1.41
2023-01-27T13:48:13.250Z,-1.17
2023-01-27T13:50:44.187Z,-1.21
2023-01-27T13:53:14.873Z,-1.24
2023-01-27T13:55:49.817Z,-1.32
2023-01-27T13:58:38.065Z,-1.32
2023-01-27T14:01:07.330Z,-1.08
2023-01-27T14:03:55.361Z,-1.27
2023-01-27T14:06:40.087Z,-1.34
2023-01-27T14:09:12.599Z,-1.27
2023-01-27T14:12:09.993Z,-1.31
2023-01-27T14:14:58.431Z,-1.36
2023-01-27T14:17:34.539Z,-1.39
2023-01-27T14:20:29.376Z,-1.37
2023-01-27T14:23:11.292Z,-1.25
2023-01-27T14:25:48.747Z,-1.25
2023-01-27T14:28:27.433Z,-1.08
2023-01-27T14:31:23.205Z,-1.15
2023-01-27T14:34:23.795Z,-1.29
2023-01-27T14:37:07.921Z,-1.15
2023-01-27T14:40:02.646Z,-1.15
2023-01-27T14:42:38.360Z,-1.10
2023-01-27T14:45:45.455Z,-1.09
2023-01-27T14:48:18.117Z,-1.16
2023-01-27T14:51:10.395Z,-1.14
2023-01-27T14:53:43.775Z,-1.00
2023-01-27T14:56:19.525Z,-1.15
2023-01-27T14:59:01.327Z,-1.04
2023-01-27T15:01:42.417Z,-1.01
2023-01-27T15:04:30.760Z,-1.14
2023-01-27T15:07:03.060Z,-1.03
2023-01-27T15:09:39.542Z,-1.23
2023-01-27T15:12:29.030Z,-1.29
2023-01-27T15:15:12.291Z,-0.91
2023-01-27T15:17:44.789Z,-1.20
2023-01-27T15:20:28.923Z,-0.95
2023-01-27T15:22:55.517Z,-0.75
2023-01-27T15:25:44.005Z,-1.01
2023-01-27T15:28:16.739Z,-1.15
2023-01-27T15:31:05.134Z,-1.16
2023-01-27T15:33:57.240Z,-1.03
2023-01-27T15:36:31.393Z,-0.95
2023-01-27T15:39:16.759Z,-0.96
2023-01-27T15:42:02.741Z,-1.07
2023-01-27T15:44:59.378Z,-1.11
2023-01-27T15:47:31.827Z,-1.20
2023-01-27T15:50:04.303Z,-1.03
2023-01-27T15:52:46.302Z,-1.18
2023-01-27T15:55:24.570Z,-1.25
2023-01-27T15:58:06.637Z,-1.27
2023-01-27T16:00:37.224Z,-1.05
2023-01-27T16:03:15.395Z,-1.02
2023-01-27T16:05:47.715Z,-0.96
2023-01-27T16:08:16.302Z,-1.11
2023-01-27T16:10:43.764Z,-1.15
2023-01-27T16:13:18.037Z,-1.01
2023-01-27T16:15:44.756Z,-1.06
2023-01-27T16:18:11.314Z,-1.22
2023-01-27T16:20:48.249Z,-1.19
2023-01-27T16:23:45.761Z,-1.01
2023-01-27T16:26:37.273Z,-1.00
2023-01-27T16:29:12.851Z,-0.99
2023-01-27T16:31:40.711Z,-1.13
2023-01-27T16:34:22.269Z,-1.11
2023-01-27T16:37:02.166Z,-1.09
2023-01-27T16:39:45.061Z,-1.09
2023-01-27T16:42:15.133Z,-1.11
2023-01-27T16:44:48.547Z,-0.96
2023-01-27T16:47:41.780Z,-1.13
2023-01-27T16:50:30.853Z,-0.89
2023-01-27T16:52:59.278Z,-0.93
2023-01-27T16:55:25.873Z,-1.02
2023-01-27T16:57:54.777Z,-0.93
2023-01-27T17:00:29.959Z,-1.01
2023-01-27T17:03:00.952Z,-0.92
2023-01-27T17:05:27.719Z,-0.80
2023-01-27T17:08:17.592Z,-0.72
2023-01-27T17:10:52.359Z,-0.82
2023-01-27T17:13:33.697Z,-0.83
2023-01-27T17:16:04.797Z,-1.00
2023-01-27T17:18:50.888Z,-0.95
2023-01-27T17:21:38.205Z,-0.91
2023-01-27T17:24:14.200Z,-0.74
2023-01-27T17:26:45.470Z,-0.74
2023-01-27T17:29:21.790Z,-0.82
2023-01-27T17:31:49.760Z,-0.95
2023-01-27T17:34:19.764Z,-0.92
2023-01-27T17:37:23.833Z,-0.65
2023-01-27T17:39:58.964Z,-0.75
2023-01-27T17:42:29.830Z,-0.83
2023-01-27T17:45:31.771Z,-0.89
2023-01-27T17:47:59.586Z,-0.85
2023-01-27T17:50:36.416Z,-0.88
2023-01-27T17:53:10.141Z,-0.67
2023-01-27T17:55:37.660Z,-0.79
2023-01-27T17:58:15.326Z,-0.77
2023-01-27T18:00:44.305Z,-0.82
2023-01-27T18:03:21.238Z,-0.91
2023-01-27T18:05:52.177Z,-0.81
2023-01-27T18:08:18.821Z,-0.56
2023-01-27T18:10:46.260Z,-0.68
2023-01-27T18:13:18.559Z,-0.68
2023-01-27T18:16:07.338Z,-0.63
2023-01-27T18:18:35.729Z,-0.66
2023-01-27T18:21:08.108Z,-0.84
2023-01-27T18:23:50.580Z,-0.77
2023-01-27T18:26:21.924Z,-0.77
2023-01-27T18:29:03.924Z,-0.94
2023-01-27T18:31:34.305Z,-0.92
2023-01-27T18:34:20.439Z,-0.67
2023-01-27T18:37:29.463Z,-0.68
2023-01-27T18:39:57.951Z,-0.73
2023-01-27T18:42:26.123Z,-0.81
2023-01-27T18:44:53.381Z,-0.70
2023-01-27T18:47:19.948Z,-0.71
2023-01-27T18:49:55.763Z,-0.72
2023-01-27T18:52:23.235Z,-0.86
2023-01-27T18:55:14.093Z,-0.84
2023-01-27T18:57:40.849Z,-0.54
2023-01-27T19:00:08.420Z,-0.61
2023-01-27T19:02:35.055Z,-0.76
2023-01-27T19:05:03.438Z,-0.55
2023-01-27T19:07:30.115Z,-0.75
2023-01-27T19:09:56.824Z,-0.86
2023-01-27T19:12:23.480Z,-0.84
2023-01-27T19:14:50.272Z,-0.65
2023-01-27T19:17:21.499Z,-0.72
2023-01-27T19:19:48.871Z,-0.75
2023-01-27T19:22:17.297Z,-0.68
2023-01-27T19:24:44.367Z,-0.56
2023-01-27T19:27:12.984Z,-0.65
2023-01-27T19:29:39.602Z,-0.60
2023-01-27T19:32:07.128Z,-0.52
2023-01-27T19:34:33.811Z,-0.54
2023-01-27T19:37:00.615Z,-0.56
2023-01-27T19:39:27.745Z,-0.67
2023-01-27T19:41:54.485Z,-0.62
2023-01-27T19:44:21.107Z,-0.75
2023-01-27T19:46:47.769Z,-0.48
2023-01-27T19:49:19.208Z,-0.46
2023-01-27T19:51:46.395Z,-0.64
2023-01-27T19:54:14.170Z,-0.64
2023-01-27T19:56:40.761Z,-0.57
2023-01-27T19:59:08.652Z,-0.51
2023-01-27T20:01:35.243Z,-0.52
2023-01-27T20:04:01.880Z,-0.53
2023-01-27T20:06:30.924Z,-0.55
2023-01-27T20:08:59.382Z,-0.61
2023-01-27T20:11:40.840Z,-0.53
2023-01-27T20:14:12.482Z,-0.78
2023-01-27T20:16:39.297Z,-0.75
2023-01-27T20:19:06.045Z,-0.70
2023-01-27T20:21:32.677Z,-0.60
2023-01-27T20:23:59.344Z,-0.63
2023-01-27T20:26:25.963Z,-0.64
2023-01-27T20:28:52.703Z,-0.66
2023-01-27T20:31:21.128Z,-0.66
2023-01-27T20:33:47.761Z,-0.59
2023-01-27T20:36:14.991Z,-0.69
2023-01-27T20:38:41.592Z,-0.60
2023-01-27T20:41:09.958Z,-0.65
2023-01-27T20:43:36.662Z,-0.53
2023-01-27T20:46:08.639Z,-0.61
2023-01-27T20:48:35.928Z,-0.60
2023-01-27T20:51:05.118Z,-0.48
2023-01-27T20:53:35.133Z,-0.54
2023-01-27T20:56:03.112Z,-0.56
2023-01-27T20:58:30.330Z,-0.63
2023-01-27T21:01:09.214Z,-0.56
2023-01-27T21:03:37.153Z,-0.54
2023-01-27T21:06:04.712Z,-0.53
2023-01-27T21:08:31.826Z,-0.53
2023-01-27T21:11:02.955Z,-0.64
2023-01-27T21:13:30.120Z,-0.56
2023-01-27T21:15:56.912Z,-0.34
2023-01-27T21:18:24.573Z,-0.43
2023-01-27T21:20:53.400Z,-0.53
2023-01-27T21:23:27.358Z,-0.41
2023-01-27T21:25:54.375Z,-0.54
2023-01-27T21:28:21.684Z,-0.49
2023-01-27T21:30:48.563Z,-0.60
2023-01-27T21:33:15.285Z,-0.42
2023-01-27T21:35:41.870Z,-0.35
2023-01-27T21:38:08.564Z,-0.45
2023-01-27T21:40:35.360Z,-0.55
2023-01-27T21:43:01.998Z,-0.53
2023-01-27T21:45:28.711Z,-0.48
2023-01-27T21:47:55.324Z,-0.64
2023-01-27T21:50:22.023Z,-0.57
2023-01-27T21:52:50.386Z,-0.50
2023-01-27T21:55:26.383Z,-0.43
2023-01-27T21:57:54.939Z,-0.56
2023-01-27T22:00:26.708Z,-0.58
2023-01-27T22:02:59.247Z,-0.74
2023-01-27T22:05:27.029Z,-0.56
2023-01-27T22:07:53.761Z,-0.55
2023-01-27T22:10:24.502Z,-0.61
2023-01-27T22:12:51.778Z,-0.50
2023-01-27T22:15:19.955Z,-0.59
2023-01-27T22:17:46.597Z,-0.27
2023-01-27T22:20:14.857Z,-0.58
2023-01-27T22:22:42.744Z,-0.47
2023-01-27T22:25:12.093Z,-0.54
2023-01-27T22:27:38.796Z,-0.54
2023-01-27T22:30:06.178Z,-0.46
2023-01-27T22:32:32.834Z,-0.42
2023-01-27T22:34:59.471Z,-0.44
2023-01-27T22:37:26.081Z,-0.51
2023-01-27T22:39:52.679Z,-0.50
2023-01-27T22:42:19.302Z,-0.65
2023-01-27T22:44:45.899Z,-0.55
2023-01-27T22:47:12.554Z,-0.65
2023-01-27T22:49:39.151Z,-0.61
2023-01-27T22:52:05.757Z,-0.15
2023-01-27T22:54:32.385Z,-0.52
2023-01-27T22:57:00.985Z,-0.51
2023-01-27T22:59:27.773Z,-0.57
2023-01-27T23:01:54.944Z,-0.48
2023-01-27T23:04:21.552Z,-0.51
2023-01-27T23:06:48.253Z,-0.49
2023-01-27T23:09:15.153Z,-0.53
2023-01-27T23:11:41.803Z,-0.64
2023-01-27T23:14:08.539Z,-0.41
2023-01-27T23:16:35.382Z,-0.33
2023-01-27T23:19:02.349Z,-0.52
2023-01-27T23:21:28.976Z,-0.45
2023-01-27T23:23:55.739Z,-0.46
2023-01-27T23:26:22.423Z,-0.45
2023-01-27T23:28:49.197Z,-0.31
2023-01-27T23:31:15.991Z,-0.26
2023-01-27T23:33:43.356Z,-0.27
2023-01-27T23:36:11.164Z,-0.38
2023-01-27T23:38:38.656Z,-0.50
2023-01-27T23:41:11.810Z,-0.41
2023-01-27T23:43:40.995Z,-0.38
2023-01-27T23:46:07.762Z,-0.41
2023-01-27T23:48:34.501Z,-0.36
2023-01-27T23:51:09.168Z,-0.38
2023-01-27T23:53:35.905Z,-0.42
2023-01-27T23:56:02.644Z,-0.50
2023-01-27T23:58:29.247Z,-0.51
